Time;durP1;ratioP1;P1;durP2;ratioP2;P2;SDS_P1;SDS_P2;PMS_P1;PMS_P2;Temp;Humidity;BMP_temperature;BMP_pressure;BME280_temperature;BME280_humidity;BME280_pressure;Samples;Min_cycle;Max_cycle;Signal;HPM_P1;HPM_P2
2021/04/06 00:00:46;;;;;;;3.40;2.25;;;;;;;17.33;46.92;99604.25;2070546;28;20064;-64
2021/04/06 00:01:48;;;;;;;2.72;1.95;;;;;;;17.33;46.80;99606.97;2070380;28;20123;-63
2021/04/06 00:02:52;;;;;;;3.15;2.22;;;;;;;17.34;46.57;99600.50;2067905;28;20048;-63
2021/04/06 00:03:55;;;;;;;3.15;2.05;;;;;;;17.33;46.77;99598.78;2070577;28;20076;-63
2021/04/06 00:04:59;;;;;;;2.38;1.67;;;;;;;17.33;46.69;99596.91;2070471;28;20527;-63
2021/04/06 00:06:02;;;;;;;5.07;3.05;;;;;;;17.34;46.68;99595.03;2070262;28;20034;-64
2021/04/06 00:07:06;;;;;;;3.63;2.47;;;;;;;17.33;46.74;99594.19;2062377;28;20034;-63
2021/04/06 00:08:08;;;;;;;2.80;2.13;;;;;;;17.33;46.85;99593.34;2070636;28;20080;-63
2021/04/06 00:09:17;;;;;;;3.38;2.45;;;;;;;17.34;46.73;99595.03;2070376;28;20022;-63
2021/04/06 00:10:22;;;;;;;4.78;3.20;;;;;;;17.33;46.72;99587.91;2069589;28;20052;-63
2021/04/06 00:11:26;;;;;;;3.28;2.05;;;;;;;17.32;46.73;99583.44;2068547;28;20084;-64
2021/04/06 00:12:27;;;;;;;2.40;1.95;;;;;;;17.34;46.74;99584.16;2068582;28;20026;-63
2021/04/06 00:13:33;;;;;;;3.60;2.25;;;;;;;17.32;46.74;99580.72;2070610;28;20490;-63
2021/04/06 00:14:35;;;;;;;2.72;2.40;;;;;;;17.31;46.57;99584.47;2070189;28;20132;-63
2021/04/06 00:15:37;;;;;;;2.72;2.10;;;;;;;17.33;46.86;99582.44;2067901;28;20481;-63
2021/04/06 00:16:39;;;;;;;4.03;2.25;;;;;;;17.33;46.61;99588.75;2069039;28;20026;-63
2021/04/06 00:17:43;;;;;;;;;;;;;;;17.28;46.79;99587.50;2069117;28;20117;-64
2021/04/06 00:18:44;;;;;;;2.97;1.90;;;;;;;17.29;46.88;99586.47;2070129;28;19913;-63
2021/04/06 00:19:46;;;;;;;3.45;2.40;;;;;;;17.28;46.89;99582.03;2069167;28;20096;-63
2021/04/06 00:20:47;;;;;;;;;;;;;;;17.24;46.91;99589.63;2070241;28;20022;-63
2021/04/06 00:21:51;;;;;;;4.82;2.10;;;;;;;17.24;46.72;99591.50;2067428;28;20011;-63
2021/04/06 00:22:53;;;;;;;5.30;2.40;;;;;;;17.26;46.94;99586.78;2068994;28;20036;-63
2021/04/06 00:23:55;;;;;;;;;;;;;;;17.23;46.85;99592.53;2070862;28;20104;-63
2021/04/06 00:24:56;;;;;;;3.53;2.22;;;;;;;17.24;46.94;99592.38;2070360;28;20023;-63
2021/04/06 00:26:18;;;;;;;2.73;2.10;;;;;;;17.25;47.12;99585.94;2068357;28;20068;-63
2021/04/06 00:27:29;;;;;;;2.72;2.03;;;;;;;17.26;47.00;99584.91;2067836;28;20345;-64
2021/04/06 00:28:42;;;;;;;2.85;2.17;;;;;;;17.26;46.81;99587.63;2070250;28;20030;-63
2021/04/06 00:29:46;;;;;;;7.28;2.67;;;;;;;17.26;46.71;99584.91;2065198;28;20270;-63
2021/04/06 00:30:56;;;;;;;3.03;1.95;;;;;;;17.27;47.00;99585.75;2070493;28;20085;-63
2021/04/06 00:31:58;;;;;;;4.60;2.28;;;;;;;17.28;46.64;99584.78;2062561;28;20182;-63
2021/04/06 00:33:04;;;;;;;2.83;1.92;;;;;;;17.27;46.89;99583.03;2069374;28;20021;-64
2021/04/06 00:34:05;;;;;;;3.33;2.50;;;;;;;17.29;46.77;99581.03;2067342;28;20099;-63
2021/04/06 00:35:07;;;;;;;3.53;1.90;;;;;;;17.29;46.88;99581.03;2070972;28;20034;-63
2021/04/06 00:36:08;;;;;;;3.45;2.35;;;;;;;17.30;46.79;99571.84;2070157;28;20513;-63
2021/04/06 00:37:15;;;;;;;3.25;2.20;;;;;;;17.28;46.86;99579.31;2070675;28;20030;-63
2021/04/06 00:38:16;;;;;;;2.72;2.10;;;;;;;17.31;46.67;99573.56;2062574;28;20089;-63
2021/04/06 00:39:28;;;;;;;3.20;1.85;;;;;;;17.30;46.81;99577.31;2064311;28;20025;-63
2021/04/06 00:40:33;;;;;;;2.38;2.00;;;;;;;17.31;46.77;99576.28;2070605;28;20057;-63
2021/04/06 00:41:35;;;;;;;3.28;2.22;;;;;;;17.30;46.92;99571.84;2069576;28;20061;-63
2021/04/06 00:42:39;;;;;;;4.80;2.45;;;;;;;17.31;46.75;99573.56;2069996;28;20706;-63
2021/04/06 00:43:42;;;;;;;2.92;2.20;;;;;;;17.30;47.02;99583.59;2070814;28;20570;-63
2021/04/06 00:44:47;;;;;;;5.07;2.20;;;;;;;17.30;46.69;99577.31;2066460;28;20026;-63
2021/04/06 00:45:48;;;;;;;2.83;1.95;;;;;;;17.31;46.82;99579.00;2066999;28;20057;-64
2021/04/06 00:46:49;;;;;;;2.80;1.97;;;;;;;17.31;46.87;99579.00;2070476;28;20029;-63
2021/04/06 00:48:08;;;;;;;2.13;1.80;;;;;;;17.29;46.83;99575.56;2069930;28;20026;-63
2021/04/06 00:49:11;;;;;;;3.10;2.05;;;;;;;17.29;46.94;99572.84;2069061;28;20033;-63
2021/04/06 00:50:35;;;;;;;2.70;2.28;;;;;;;17.27;46.99;99573.03;2070564;28;20511;-63
2021/04/06 00:51:40;;;;;;;2.67;1.92;;;;;;;17.27;47.07;99574.84;2070171;28;20068;-63
2021/04/06 00:52:46;;;;;;;4.22;2.17;;;;;;;17.29;46.68;99575.56;2067114;28;20120;-63
2021/04/06 00:54:00;;;;;;;4.40;2.47;;;;;;;17.27;46.87;99573.03;2069875;28;20033;-63
2021/04/06 00:55:01;;;;;;;2.95;2.15;;;;;;;17.29;46.76;99570.13;2070240;28;20049;-63
2021/04/06 00:56:13;;;;;;;3.90;2.22;;;;;;;17.27;46.90;99572.13;2068162;28;20109;-63
2021/04/06 00:57:15;;;;;;;4.22;2.42;;;;;;;17.28;46.87;99580.16;2070367;28;20034;-63
2021/04/06 00:58:16;;;;;;;3.17;2.20;;;;;;;17.30;46.91;99571.84;2069906;28;20362;-63
2021/04/06 00:59:21;;;;;;;3.47;2.30;;;;;;;17.29;46.73;99570.97;2071432;28;20047;-63
2021/04/06 01:00:29;;;;;;;2.45;2.10;;;;;;;17.29;46.75;99570.97;2064103;28;20687;-63
2021/04/06 01:01:41;;;;;;;3.05;1.98;;;;;;;17.29;46.83;99575.56;2066329;28;20025;-63
2021/04/06 01:02:57;;;;;;;4.07;2.55;;;;;;;17.27;47.11;99567.56;2071954;28;20112;-63
2021/04/06 01:03:58;;;;;;;2.60;2.00;;;;;;;17.29;47.01;99575.56;2063760;28;20109;-63
2021/04/06 01:05:06;;;;;;;3.88;1.98;;;;;;;17.28;46.73;99573.88;2066837;28;20030;-63
2021/04/06 01:06:07;;;;;;;6.22;2.30;;;;;;;17.30;46.86;99569.13;2070972;28;20037;-63
2021/04/06 01:07:13;;;;;;;4.25;2.05;;;;;;;17.28;46.90;99568.44;2071747;28;20117;-63
2021/04/06 01:08:17;;;;;;;4.15;2.58;;;;;;;17.28;46.68;99563.81;2069255;28;20175;-63
2021/04/06 01:09:18;;;;;;;3.50;2.53;;;;;;;17.30;46.89;99569.13;2071197;28;20088;-63
2021/04/06 01:10:19;;;;;;;2.65;1.90;;;;;;;17.30;47.08;99566.41;2070993;28;20037;-63
2021/04/06 01:11:23;;;;;;;3.33;2.65;;;;;;;17.28;46.80;99566.56;2070377;28;20095;-63
2021/04/06 01:12:28;;;;;;;3.15;2.70;;;;;;;17.29;46.87;99564.69;2070463;28;20021;-64
2021/04/06 01:13:30;;;;;;;3.33;2.10;;;;;;;17.28;46.90;99562.97;2071743;28;20032;-63
2021/04/06 01:14:33;;;;;;;2.80;2.13;;;;;;;17.30;46.79;99563.69;2070465;28;20028;-63
2021/04/06 01:15:33;;;;;;;3.92;2.40;;;;;;;17.31;46.69;99562.66;2071569;28;20088;-63
2021/04/06 01:16:34;;;;;;;3.27;2.27;;;;;;;17.31;46.72;99565.38;2069738;28;20044;-63
2021/04/06 01:17:37;;;;;;;3.50;2.40;;;;;;;17.30;46.75;99572.72;2072055;28;20059;-63
2021/04/06 01:18:38;;;;;;;3.55;2.40;;;;;;;17.30;46.77;99563.69;2070989;28;20018;-63
2021/04/06 01:19:41;;;;;;;4.15;2.33;;;;;;;17.30;46.80;99563.69;2070613;28;20021;-63
2021/04/06 01:20:41;;;;;;;3.47;2.22;;;;;;;17.30;46.75;99566.41;2070689;28;20030;-63
2021/04/06 01:21:42;;;;;;;3.87;2.40;;;;;;;17.29;46.84;99559.22;2071908;28;20735;-64
2021/04/06 01:22:44;;;;;;;3.57;2.47;;;;;;;17.30;46.79;99550.06;2070665;28;20089;-63
2021/04/06 01:23:45;;;;;;;4.43;2.53;;;;;;;17.31;46.71;99554.50;2070769;28;20257;-62
2021/04/06 01:24:47;;;;;;;3.60;2.43;;;;;;;17.30;46.80;99560.97;2071974;28;20046;-63
2021/04/06 01:25:57;;;;;;;2.88;2.28;;;;;;;17.29;46.88;99553.78;2070517;28;20053;-63
2021/04/06 01:27:00;;;;;;;2.90;2.10;;;;;;;17.29;46.97;99559.22;2070472;28;20107;-63
2021/04/06 01:28:08;;;;;;;3.65;2.30;;;;;;;17.28;46.97;99561.09;2071396;28;20061;-63
2021/04/06 01:29:09;;;;;;;3.30;2.08;;;;;;;17.29;47.01;99554.63;2070418;28;20465;-63
2021/04/06 01:30:47;;;;;;;3.57;2.17;;;;;;;17.28;46.57;99552.09;2071901;28;20412;-63
2021/04/06 01:31:50;;;;;;;2.45;2.13;;;;;;;17.28;46.78;99546.63;2063680;28;20045;-63
2021/04/06 01:32:52;;;;;;;4.47;2.30;;;;;;;17.27;46.86;99550.34;2069625;28;20054;-63
2021/04/06 01:33:52;;;;;;;6.38;2.70;;;;;;;17.28;46.89;99546.63;2070518;28;20028;-64
2021/04/06 01:34:53;;;;;;;2.53;2.27;;;;;;;17.28;46.83;99546.63;2072146;28;20045;-63
2021/04/06 01:35:56;;;;;;;3.97;2.13;;;;;;;17.30;46.86;99556.38;2070702;28;20499;-64
2021/04/06 01:36:58;;;;;;;2.85;2.50;;;;;;;17.28;46.80;99557.53;2071711;28;20057;-64
2021/04/06 01:37:59;;;;;;;3.40;2.28;;;;;;;17.29;46.77;99554.63;2070713;28;20026;-64
2021/04/06 01:38:59;;;;;;;4.68;3.30;;;;;;;17.30;46.80;99555.50;2069884;28;20057;-63
2021/04/06 01:40:02;;;;;;;4.23;2.53;;;;;;;17.29;46.90;99553.78;2071804;28;20117;-63
2021/04/06 01:41:04;;;;;;;4.80;2.38;;;;;;;17.30;46.79;99559.09;2070843;28;20029;-63
2021/04/06 01:42:07;;;;;;;3.80;2.05;;;;;;;17.28;46.81;99563.81;2071905;28;20353;-63
2021/04/06 01:43:09;;;;;;;3.42;2.30;;;;;;;17.30;46.74;99558.25;2069323;28;20179;-63
2021/04/06 01:44:10;;;;;;;3.28;2.58;;;;;;;17.30;46.92;99558.25;2071040;28;20413;-63
2021/04/06 01:45:16;;;;;;;3.60;2.30;;;;;;;17.28;46.58;99560.25;2071477;28;20092;-62
2021/04/06 01:46:18;;;;;;;3.65;2.80;;;;;;;17.28;46.81;99563.81;2068858;28;20436;-62
2021/04/06 01:47:20;;;;;;;4.85;2.30;;;;;;;17.30;46.67;99560.97;2071334;28;20060;-62
2021/04/06 01:48:21;;;;;;;3.85;2.20;;;;;;;17.29;46.90;99560.06;2067908;28;20030;-62
2021/04/06 01:49:23;;;;;;;4.00;2.45;;;;;;;17.29;46.72;99564.69;2071625;28;20034;-62
2021/04/06 01:50:24;;;;;;;3.60;2.20;;;;;;;17.29;46.88;99562.81;2071142;28;20503;-62
2021/04/06 01:51:25;;;;;;;2.75;2.00;;;;;;;17.29;46.83;99559.22;2065583;28;20042;-62
2021/04/06 01:52:26;;;;;;;3.87;2.40;;;;;;;17.28;46.76;99558.38;2070962;28;20846;-63
2021/04/06 01:53:26;;;;;;;3.10;2.40;;;;;;;17.29;46.78;99565.53;2071285;28;20025;-62
2021/04/06 01:54:27;;;;;;;3.77;2.23;;;;;;;17.28;46.81;99563.81;2070161;28;20272;-62
2021/04/06 01:55:32;;;;;;;2.63;2.10;;;;;;;17.29;46.80;99570.97;2071263;28;20523;-62
2021/04/06 01:56:46;;;;;;;2.65;2.05;;;;;;;17.28;46.86;99563.81;2068822;28;20029;-62
2021/04/06 01:57:50;;;;;;;3.70;2.40;;;;;;;17.28;46.86;99568.44;2062441;28;20137;-62
2021/04/06 01:58:55;;;;;;;3.20;1.83;;;;;;;17.28;46.76;99563.81;2070894;28;20784;-62
2021/04/06 02:00:00;;;;;;;3.47;2.45;;;;;;;17.29;46.90;99572.84;2067711;28;20022;-62
2021/04/06 02:02:11;;;;;;;3.25;2.30;;;;;;;17.27;46.89;99572.13;2070641;28;20041;-62
2021/04/06 02:03:13;;;;;;;4.40;2.05;;;;;;;17.29;46.75;99567.41;2070132;28;20104;-62
2021/04/06 02:04:19;;;;;;;3.80;2.08;;;;;;;17.28;46.83;99568.44;2069954;28;20034;-62
2021/04/06 02:05:23;;;;;;;4.72;2.10;;;;;;;17.28;46.77;99571.16;2064959;28;20030;-63
2021/04/06 02:06:26;;;;;;;2.83;2.10;;;;;;;17.28;46.83;99571.16;2068723;28;20041;-63
2021/04/06 02:07:32;;;;;;;3.85;2.22;;;;;;;17.28;46.78;99576.59;2069444;28;20040;-63
2021/04/06 02:08:33;;;;;;;4.05;2.83;;;;;;;17.28;46.78;99568.44;2060403;28;20109;-63
2021/04/06 02:09:34;;;;;;;4.30;2.80;;;;;;;17.28;46.72;99568.44;2069920;28;20033;-63
2021/04/06 02:10:34;;;;;;;6.47;2.87;;;;;;;17.28;46.92;99565.69;2071047;28;20450;-63
2021/04/06 02:11:39;;;;;;;4.23;2.10;;;;;;;17.27;46.75;99570.28;2068882;28;20038;-62
2021/04/06 02:12:46;;;;;;;3.88;2.40;;;;;;;17.27;46.87;99563.97;2070941;28;20087;-62
2021/04/06 02:13:47;;;;;;;3.95;2.20;;;;;;;17.27;46.89;99567.56;2071426;28;20069;-62
2021/04/06 02:14:52;;;;;;;3.53;2.33;;;;;;;17.27;46.79;99566.69;2069941;28;20022;-63
2021/04/06 02:16:01;;;;;;;3.30;2.22;;;;;;;17.27;46.79;99563.97;2070573;28;20029;-63
2021/04/06 02:17:05;;;;;;;2.60;1.83;;;;;;;17.28;46.81;99568.44;2067634;28;20286;-63
2021/04/06 02:18:06;;;;;;;4.80;2.30;;;;;;;17.28;46.85;99568.44;2071225;28;20045;-62
2021/04/06 02:19:06;;;;;;;3.88;2.75;;;;;;;17.28;46.78;99572.00;2069350;28;20026;-63
2021/04/06 02:20:07;;;;;;;6.53;3.10;;;;;;;17.28;46.92;99562.97;2068431;28;20383;-62
2021/04/06 02:21:09;;;;;;;3.95;2.25;;;;;;;17.28;46.83;99568.44;2070917;28;20036;-63
2021/04/06 02:22:12;;;;;;;3.38;2.35;;;;;;;17.28;46.76;99573.88;2070122;28;20081;-63
2021/04/06 02:23:12;;;;;;;4.25;2.55;;;;;;;17.28;46.71;99566.56;2070568;28;20049;-63
2021/04/06 02:24:24;;;;;;;3.57;2.60;;;;;;;17.27;46.77;99566.69;2070864;28;20034;-63
2021/04/06 02:25:29;;;;;;;4.93;2.38;;;;;;;17.27;46.86;99566.69;2069865;28;20054;-63
2021/04/06 02:26:29;;;;;;;2.72;2.10;;;;;;;17.28;46.80;99557.53;2071113;28;20044;-62
2021/04/06 02:27:34;;;;;;;2.73;2.00;;;;;;;17.27;46.88;99561.25;2071139;28;20113;-63
2021/04/06 02:28:34;;;;;;;5.47;2.60;;;;;;;17.27;46.85;99561.25;2069408;28;20118;-63
2021/04/06 02:29:40;;;;;;;2.53;2.20;;;;;;;17.26;46.83;99548.63;2071208;28;20041;-63
2021/04/06 02:30:52;;;;;;;2.72;2.15;;;;;;;17.25;46.89;99563.28;2068056;28;20464;-63
2021/04/06 02:31:52;;;;;;;3.97;2.65;;;;;;;17.26;46.98;99554.09;2068418;28;20553;-63
2021/04/06 02:32:53;;;;;;;4.27;2.27;;;;;;;17.26;46.83;99559.53;2064219;28;20038;-63
2021/04/06 02:33:53;;;;;;;2.80;1.93;;;;;;;17.27;46.91;99563.97;2067509;28;20118;-63
2021/04/06 02:34:56;;;;;;;2.70;2.20;;;;;;;17.27;46.88;99564.84;2067497;28;20029;-63
2021/04/06 02:36:06;;;;;;;3.92;2.35;;;;;;;17.26;46.75;99560.38;2065006;28;20033;-62
2021/04/06 02:37:13;;;;;;;2.60;2.08;;;;;;;17.26;46.79;99559.53;2070298;28;20030;-63
2021/04/06 02:38:14;;;;;;;3.33;2.05;;;;;;;17.27;46.79;99553.06;2070191;28;20037;-63
2021/04/06 02:39:14;;;;;;;2.90;1.90;;;;;;;17.25;46.74;99549.66;2067019;28;20041;-63
2021/04/06 02:40:18;;;;;;;2.47;2.17;;;;;;;17.24;46.76;99558.81;2070181;28;20379;-63
2021/04/06 02:41:19;;;;;;;4.30;2.83;;;;;;;17.26;46.84;99562.25;2070646;28;20515;-63
2021/04/06 02:42:27;;;;;;;3.57;2.20;;;;;;;17.25;46.75;99566.00;2071149;28;20462;-63
2021/04/06 02:43:41;;;;;;;3.17;2.30;;;;;;;17.25;46.80;99558.69;2070209;28;20046;-63
2021/04/06 02:44:42;;;;;;;4.07;2.42;;;;;;;17.26;46.84;99556.81;2063628;28;20034;-63
2021/04/06 02:45:42;;;;;;;4.00;2.67;;;;;;;17.27;46.81;99555.78;2068557;28;20681;-63
2021/04/06 02:46:49;;;;;;;3.10;2.13;;;;;;;17.26;47.01;99559.53;2063345;28;20084;-63
2021/04/06 02:48:05;;;;;;;4.50;2.40;;;;;;;17.26;46.90;99559.53;2070568;28;20025;-63
2021/04/06 02:49:05;;;;;;;4.90;2.13;;;;;;;17.26;46.84;99564.97;2065380;28;20088;-63
2021/04/06 02:50:14;;;;;;;3.43;2.30;;;;;;;17.26;46.79;99564.97;2071075;28;20152;-63
2021/04/06 02:51:16;;;;;;;4.00;2.40;;;;;;;17.26;46.80;99559.53;2064629;28;20096;-63
2021/04/06 02:52:17;;;;;;;2.45;2.08;;;;;;;17.26;46.84;99559.53;2068602;28;20132;-63
2021/04/06 02:53:17;;;;;;;2.63;2.07;;;;;;;17.26;46.77;99559.53;2071118;28;20096;-63
2021/04/06 02:54:18;;;;;;;3.60;2.20;;;;;;;17.27;46.83;99563.97;2069187;28;20420;-63
2021/04/06 02:55:21;;;;;;;3.03;2.37;;;;;;;17.26;46.81;99554.09;2069490;28;20025;-63
2021/04/06 02:56:33;;;;;;;4.57;2.38;;;;;;;17.25;46.79;99552.38;2069552;28;20025;-63
2021/04/06 02:57:38;;;;;;;2.63;2.03;;;;;;;17.26;46.78;99556.81;2067800;28;20038;-63
2021/04/06 02:58:39;;;;;;;3.45;2.40;;;;;;;17.24;46.71;99551.50;2066476;28;20030;-64
2021/04/06 02:59:39;;;;;;;3.47;2.93;;;;;;;17.26;46.86;99559.53;2070497;28;20052;-63
2021/04/06 03:00:40;;;;;;;3.80;2.47;;;;;;;17.24;46.83;99546.06;2070034;28;20026;-63
2021/04/06 03:01:41;;;;;;;3.53;2.13;;;;;;;17.25;46.88;99546.94;2064007;28;20075;-63
2021/04/06 03:02:41;;;;;;;2.45;2.05;;;;;;;17.24;47.07;99547.94;2070230;28;20068;-63
2021/04/06 03:03:43;;;;;;;3.97;2.60;;;;;;;17.25;46.87;99546.94;2069391;28;20108;-63
2021/04/06 03:04:45;;;;;;;3.60;1.90;;;;;;;17.25;46.80;99546.94;2069963;28;20030;-63
2021/04/06 03:05:46;;;;;;;4.20;2.35;;;;;;;17.25;46.87;99544.22;2070585;28;20022;-63
2021/04/06 03:06:52;;;;;;;3.22;2.10;;;;;;;17.25;46.85;99549.66;2070334;28;20026;-63
2021/04/06 03:07:53;;;;;;;3.05;2.13;;;;;;;17.25;47.00;99552.38;2069539;28;20386;-63
2021/04/06 03:08:58;;;;;;;3.77;2.43;;;;;;;17.23;46.84;99543.50;2070703;28;20081;-63
2021/04/06 03:09:59;;;;;;;3.33;2.20;;;;;;;17.25;46.89;99552.38;2071170;28;20056;-63
2021/04/06 03:11:02;;;;;;;3.90;2.13;;;;;;;17.23;46.79;99543.50;2069591;28;20030;-64
2021/04/06 03:12:05;;;;;;;5.63;2.22;;;;;;;17.25;46.87;99538.78;2070797;28;20033;-63
2021/04/06 03:13:11;;;;;;;2.92;2.08;;;;;;;17.24;46.85;99550.66;2069367;28;20105;-63
2021/04/06 03:14:12;;;;;;;3.00;2.08;;;;;;;17.24;46.81;99542.47;2068191;28;20021;-63
2021/04/06 03:15:14;;;;;;;2.90;2.08;;;;;;;17.24;46.83;99534.31;2070981;28;20109;-64
2021/04/06 03:16:16;;;;;;;2.35;1.90;;;;;;;17.23;46.91;99538.06;2070639;28;20033;-63
2021/04/06 03:17:17;;;;;;;3.22;1.98;;;;;;;17.25;46.81;99546.94;2068147;28;20033;-63
2021/04/06 03:18:18;;;;;;;3.27;2.17;;;;;;;17.25;46.68;99541.50;2069389;28;20043;-63
2021/04/06 03:19:31;;;;;;;1.97;1.77;;;;;;;17.23;46.84;99544.34;2068864;28;20061;-63
2021/04/06 03:20:35;;;;;;;2.33;1.73;;;;;;;17.24;46.86;99550.66;2070603;28;20053;-64
2021/04/06 03:21:36;;;;;;;3.17;2.33;;;;;;;17.24;46.87;99537.88;2070604;28;20029;-63
2021/04/06 03:22:36;;;;;;;3.30;1.83;;;;;;;17.24;47.06;99542.47;2070535;28;20116;-63
2021/04/06 03:23:38;;;;;;;4.07;2.33;;;;;;;17.23;47.08;99540.78;2069726;28;20558;-63
2021/04/06 03:24:39;;;;;;;3.58;2.45;;;;;;;17.24;46.68;99539.75;2071041;28;20113;-63
2021/04/06 03:25:40;;;;;;;4.18;2.25;;;;;;;17.24;47.02;99547.94;2070380;28;20029;-62
2021/04/06 03:26:40;;;;;;;4.10;2.47;;;;;;;17.24;46.83;99537.88;2071051;28;20029;-62
2021/04/06 03:27:46;;;;;;;2.60;2.20;;;;;;;17.23;46.82;99538.06;2068708;28;20694;-62
2021/04/06 03:28:47;;;;;;;2.83;1.92;;;;;;;17.24;46.97;99542.47;2070644;28;20060;-63
2021/04/06 03:29:49;;;;;;;3.75;2.28;;;;;;;17.24;46.80;99545.22;2070382;28;20029;-62
2021/04/06 03:31:07;;;;;;;3.80;2.10;;;;;;;17.23;46.81;99538.06;2068461;28;20026;-62
2021/04/06 03:32:07;;;;;;;4.45;2.03;;;;;;;17.23;46.94;99544.34;2069125;28;20033;-62
2021/04/06 03:33:14;;;;;;;4.03;2.27;;;;;;;17.23;46.86;99543.50;2070226;28;20026;-62
2021/04/06 03:34:15;;;;;;;2.80;2.00;;;;;;;17.23;46.77;99544.34;2068269;28;20049;-65
2021/04/06 03:35:15;;;;;;;5.03;2.67;;;;;;;17.24;46.91;99537.03;2070540;28;20029;-62
2021/04/06 03:36:28;;;;;;;3.17;2.50;;;;;;;17.22;46.85;99537.22;2069836;28;20136;-64
2021/04/06 03:37:28;;;;;;;2.97;1.80;;;;;;;17.22;46.91;99542.66;2066844;28;20020;-63
2021/04/06 03:38:48;;;;;;;4.73;3.20;;;;;;;17.21;46.65;99540.06;2071068;28;20049;-63
2021/04/06 03:39:50;;;;;;;2.70;1.80;;;;;;;17.21;46.84;99537.34;2068245;28;20033;-63
2021/04/06 03:40:51;;;;;;;;;;;;;;;17.17;46.83;99539.50;2070252;28;20036;-63
2021/04/06 03:41:52;;;;;;;3.88;2.25;;;;;;;17.18;46.98;99537.66;2070665;28;19920;-64
2021/04/06 03:42:53;;;;;;;2.53;2.20;;;;;;;17.19;46.81;99540.22;2069729;28;20078;-63
2021/04/06 03:44:05;;;;;;;3.57;2.53;;;;;;;17.20;46.92;99538.34;2069795;28;20037;-63
2021/04/06 03:45:08;;;;;;;2.83;1.80;;;;;;;17.20;46.68;99541.06;2063017;28;20039;-63
2021/04/06 03:46:09;;;;;;;3.35;2.17;;;;;;;17.20;46.89;99538.34;2066777;28;20112;-63
2021/04/06 03:47:10;;;;;;;3.10;2.05;;;;;;;17.20;47.01;99550.13;2066945;28;20441;-63
2021/04/06 03:48:19;;;;;;;3.50;2.43;;;;;;;17.19;46.81;99540.22;2067602;28;20442;-63
2021/04/06 03:49:22;;;;;;;5.38;2.70;;;;;;;17.21;46.79;99545.53;2067605;28;20010;-63
2021/04/06 03:50:34;;;;;;;4.47;2.55;;;;;;;17.20;46.85;99549.22;2070825;28;20516;-63
2021/04/06 03:51:36;;;;;;;3.53;2.15;;;;;;;17.21;46.96;99542.78;2067587;28;20026;-64
2021/04/06 03:52:37;;;;;;;2.90;2.10;;;;;;;17.22;46.78;99547.22;2070028;28;20477;-63
2021/04/06 03:53:42;;;;;;;4.03;2.50;;;;;;;17.22;46.85;99541.78;2070142;28;20413;-64
2021/04/06 03:54:47;;;;;;;3.05;1.90;;;;;;;17.20;46.92;99541.94;2068961;28;20025;-63
2021/04/06 03:56:05;;;;;;;2.83;2.30;;;;;;;17.20;46.83;99549.22;2070049;28;20025;-63
2021/04/06 03:57:30;;;;;;;4.32;2.63;;;;;;;17.20;46.88;99549.22;2062860;28;20101;-63
2021/04/06 03:58:38;;;;;;;9.07;2.38;;;;;;;17.19;46.85;99539.34;2069718;28;20061;-63
2021/04/06 03:59:38;;;;;;;3.85;2.10;;;;;;;17.19;46.92;99542.09;2069385;28;20025;-63
2021/04/06 04:00:40;;;;;;;4.47;2.53;;;;;;;17.20;47.03;99544.66;2070903;28;20577;-63
2021/04/06 04:01:40;;;;;;;2.97;1.88;;;;;;;17.21;47.03;99550.97;2067394;28;20034;-63
2021/04/06 04:02:41;;;;;;;3.27;2.30;;;;;;;17.21;46.92;99554.53;2070080;28;20034;-63
2021/04/06 04:03:41;;;;;;;3.45;2.53;;;;;;;17.20;46.92;99550.13;2070735;28;20113;-64
2021/04/06 04:04:42;;;;;;;3.10;2.20;;;;;;;17.22;46.93;99547.22;2069955;28;20492;-63
2021/04/06 04:05:42;;;;;;;2.70;2.17;;;;;;;17.21;46.63;99542.78;2070792;28;20013;-63
2021/04/06 04:06:43;;;;;;;2.70;1.80;;;;;;;17.21;46.71;99545.53;2068764;28;20017;-63
2021/04/06 04:07:43;;;;;;;3.22;2.45;;;;;;;17.21;46.69;99551.81;2070012;28;20033;-63
2021/04/06 04:08:43;;;;;;;3.83;2.93;;;;;;;17.21;46.79;99548.25;2070135;28;20033;-63
2021/04/06 04:09:44;;;;;;;5.30;2.43;;;;;;;17.21;46.83;99545.53;2070432;28;20026;-63
2021/04/06 04:10:44;;;;;;;2.27;2.00;;;;;;;17.21;47.04;99550.97;2068731;28;20022;-63
2021/04/06 04:11:45;;;;;;;3.00;2.00;;;;;;;17.21;46.83;99545.53;2069620;28;20029;-63
2021/04/06 04:12:45;;;;;;;2.53;2.27;;;;;;;17.20;46.80;99544.66;2068558;28;20022;-63
2021/04/06 04:13:46;;;;;;;3.93;1.90;;;;;;;17.22;46.82;99547.22;2063492;28;20123;-63
2021/04/06 04:14:47;;;;;;;2.95;2.35;;;;;;;17.21;46.82;99548.25;2066217;28;20018;-63
2021/04/06 04:15:48;;;;;;;3.45;2.50;;;;;;;17.21;46.78;99545.53;2064651;28;20112;-63
2021/04/06 04:16:48;;;;;;;2.73;2.17;;;;;;;17.21;46.74;99545.53;2063979;28;20030;-63
2021/04/06 04:17:52;;;;;;;4.97;2.00;;;;;;;17.21;46.68;99550.97;2066265;28;20495;-64
2021/04/06 04:18:53;;;;;;;3.05;2.17;;;;;;;17.22;46.82;99547.22;2070030;28;20037;-63
2021/04/06 04:19:54;;;;;;;3.13;2.00;;;;;;;17.21;46.84;99545.53;2069216;28;20022;-63
2021/04/06 04:20:55;;;;;;;2.47;1.97;;;;;;;17.21;46.77;99548.25;2070409;28;20030;-63
2021/04/06 04:21:55;;;;;;;2.20;1.80;;;;;;;17.20;46.82;99543.78;2067715;28;20272;-63
2021/04/06 04:22:56;;;;;;;4.13;2.73;;;;;;;17.21;46.66;99545.53;2062617;28;20030;-64
2021/04/06 04:23:56;;;;;;;3.37;2.40;;;;;;;17.21;46.83;99545.53;2066021;28;20052;-63
2021/04/06 04:24:57;;;;;;;2.83;2.03;;;;;;;17.21;46.86;99550.97;2070821;28;20033;-63
2021/04/06 04:25:57;;;;;;;4.38;2.55;;;;;;;17.20;46.75;99543.78;2062697;28;20023;-63
2021/04/06 04:26:58;;;;;;;3.13;2.23;;;;;;;17.20;46.94;99546.50;2061955;28;20053;-63
2021/04/06 04:27:58;;;;;;;3.43;2.00;;;;;;;17.21;46.70;99537.34;2070201;28;20029;-63
2021/04/06 04:28:59;;;;;;;3.40;2.20;;;;;;;17.20;46.97;99544.66;2065264;28;20698;-63
2021/04/06 04:29:59;;;;;;;2.43;2.07;;;;;;;17.20;46.83;99547.38;2070847;28;20047;-63
2021/04/06 04:31:05;;;;;;;2.83;1.87;;;;;;;17.22;46.77;99541.78;2061965;28;20061;-64
2021/04/06 04:32:13;;;;;;;2.95;2.10;;;;;;;17.21;46.75;99545.53;2063272;28;20030;-63
2021/04/06 04:33:14;;;;;;;2.58;2.20;;;;;;;17.21;46.61;99540.06;2070780;28;20044;-63
2021/04/06 04:34:14;;;;;;;5.37;2.67;;;;;;;17.21;46.79;99548.25;2070384;28;20030;-63
2021/04/06 04:35:15;;;;;;;3.27;2.10;;;;;;;17.20;46.71;99538.34;2071641;28;20117;-63
2021/04/06 04:36:15;;;;;;;2.43;1.77;;;;;;;17.20;46.74;99541.06;2070183;28;20104;-63
2021/04/06 04:37:16;;;;;;;4.15;2.35;;;;;;;17.20;46.87;99543.78;2071036;28;20120;-63
2021/04/06 04:38:16;;;;;;;3.27;2.40;;;;;;;17.19;47.00;99536.63;2072283;28;20087;-63
2021/04/06 04:39:18;;;;;;;4.20;2.30;;;;;;;17.20;46.77;99544.66;2070136;28;20230;-63
2021/04/06 04:40:18;;;;;;;2.67;2.10;;;;;;;17.20;46.97;99544.66;2071516;28;20033;-63
2021/04/06 04:41:19;;;;;;;4.73;2.13;;;;;;;17.20;46.55;99544.66;2069971;28;20205;-63
2021/04/06 04:42:19;;;;;;;3.73;2.20;;;;;;;17.20;46.83;99539.22;2072231;28;20029;-63
2021/04/06 04:43:20;;;;;;;3.40;2.30;;;;;;;17.20;46.82;99549.22;2071827;28;20141;-63
2021/04/06 04:44:20;;;;;;;3.37;2.47;;;;;;;17.20;46.87;99543.78;2070336;28;20030;-63
2021/04/06 04:45:21;;;;;;;3.77;2.27;;;;;;;17.19;46.81;99542.94;2072325;28;20041;-63
2021/04/06 04:46:22;;;;;;;3.67;3.03;;;;;;;17.21;46.86;99540.06;2071218;28;20052;-63
2021/04/06 04:47:23;;;;;;;2.57;2.00;;;;;;;17.20;47.05;99541.06;2070341;28;20038;-63
2021/04/06 04:48:23;;;;;;;3.30;2.40;;;;;;;17.19;46.87;99552.97;2068241;28;20037;-63
2021/04/06 04:49:24;;;;;;;3.93;2.43;;;;;;;17.20;46.76;99546.50;2071112;28;20250;-63
2021/04/06 04:50:26;;;;;;;4.13;2.03;;;;;;;17.20;46.72;99549.22;2072130;28;20117;-63
2021/04/06 04:51:27;;;;;;;2.80;2.08;;;;;;;17.20;46.79;99549.22;2069636;28;20052;-63
2021/04/06 04:52:27;;;;;;;4.83;2.60;;;;;;;17.20;46.79;99554.69;2071996;28;20113;-63
2021/04/06 04:53:28;;;;;;;3.07;2.20;;;;;;;17.20;46.76;99546.50;2071866;28;20029;-63
2021/04/06 04:54:29;;;;;;;4.07;2.33;;;;;;;17.20;46.85;99551.97;2067925;28;20022;-63
2021/04/06 04:55:39;;;;;;;3.50;2.37;;;;;;;17.19;46.66;99555.69;2072351;28;20715;-63
2021/04/06 04:56:39;;;;;;;4.28;2.17;;;;;;;17.20;46.79;99560.13;2066304;28;20072;-64
2021/04/06 04:57:40;;;;;;;2.67;1.93;;;;;;;17.21;46.79;99559.13;2063763;28;20034;-63
2021/04/06 04:58:41;;;;;;;3.83;2.33;;;;;;;17.19;46.81;99562.00;2072307;28;20044;-63
2021/04/06 04:59:41;;;;;;;4.30;2.37;;;;;;;17.21;46.85;99567.31;2071305;28;21630;-63
2021/04/06 05:00:41;;;;;;;3.23;2.10;;;;;;;17.20;46.93;99561.00;2072330;28;20038;-63